createdAt,value
2022-08-19T00:01:45.945Z,100005.06
2022-08-19T00:04:23.531Z,100006.94
2022-08-19T00:06:51.339Z,100009.44
2022-08-19T00:09:22.270Z,100011.09
2022-08-19T00:11:50.143Z,100006.31
2022-08-19T00:14:19.815Z,99996.53
2022-08-19T00:16:49.048Z,99991.94
2022-08-19T00:19:17.740Z,99989.41
2022-08-19T00:21:45.674Z,99982.97
2022-08-19T00:24:15.591Z,99974.84
2022-08-19T00:26:46.342Z,99973.59
2022-08-19T00:29:16.674Z,99977.13
2022-08-19T00:31:44.826Z,99970.44
2022-08-19T00:34:13.591Z,99980.47
2022-08-19T00:36:42.301Z,99986.28
2022-08-19T00:39:11.476Z,99985.66
2022-08-19T00:41:40.237Z,99984.00
2022-08-19T00:44:12.239Z,99970.66
2022-08-19T00:46:43.077Z,99974.81
2022-08-19T00:49:16.429Z,99963.97
2022-08-19T00:51:46.794Z,99949.38
2022-08-19T00:54:15.538Z,99951.03
2022-08-19T00:56:44.401Z,99957.50
2022-08-19T00:59:15.546Z,99962.28
2022-08-19T01:02:03.467Z,99955.84
2022-08-19T01:04:31.256Z,99959.38
2022-08-19T01:07:00.579Z,99955.84
2022-08-19T01:09:28.368Z,99958.34
2022-08-19T01:11:57.773Z,99963.78
2022-08-19T01:14:27.349Z,99959.19
2022-08-19T01:16:57.889Z,99957.28
2022-08-19T01:19:30.674Z,99958.13
2022-08-19T01:22:16.831Z,99960.84
2022-08-19T01:24:49.734Z,99957.09
2022-08-19T01:27:18.167Z,99957.09
2022-08-19T01:29:46.848Z,99953.56
2022-08-19T01:32:33.571Z,99953.97
2022-08-19T01:35:02.990Z,99955.84
2022-08-19T01:37:31.601Z,99962.28
2022-08-19T01:40:00.926Z,99961.47
2022-08-19T01:42:30.458Z,99972.50
2022-08-19T01:44:59.170Z,99971.28
2022-08-19T01:47:26.914Z,99967.72
2022-08-19T01:49:54.916Z,99969.78
2022-08-19T01:52:22.672Z,99965.44
2022-08-19T01:54:50.447Z,99974.56
2022-08-19T01:57:19.549Z,99965.63
2022-08-19T01:59:47.746Z,99972.09
2022-08-19T02:02:15.689Z,99972.94
2022-08-19T02:04:43.471Z,99978.34
2022-08-19T02:07:11.308Z,99976.66
2022-08-19T02:09:39.193Z,99973.94
2022-08-19T02:12:09.591Z,99973.94
2022-08-19T02:14:39.150Z,99973.13
2022-08-19T02:17:07.004Z,99965.19
2022-08-19T02:19:34.940Z,99965.63
2022-08-19T02:22:02.855Z,99966.84
2022-08-19T02:24:30.822Z,99973.50
2022-08-19T02:26:59.704Z,99976.03
2022-08-19T02:29:27.556Z,99970.81
2022-08-19T02:31:56.998Z,99971.63
2022-08-19T02:34:25.865Z,99971.63
2022-08-19T02:36:53.777Z,99972.06
2022-08-19T02:39:20.581Z,99977.66
2022-08-19T02:41:48.282Z,99982.91
2022-08-19T02:44:26.656Z,99988.94
2022-08-19T02:47:00.645Z,99982.91
2022-08-19T02:49:28.673Z,99982.91
2022-08-19T02:51:56.441Z,99989.13
2022-08-19T02:54:24.230Z,99986.63
2022-08-19T02:56:52.400Z,99987.69
2022-08-19T02:59:22.873Z,99987.06
2022-08-19T03:01:51.423Z,99991.63
2022-08-19T03:04:21.279Z,99990.59
2022-08-19T03:06:49.683Z,99988.50
2022-08-19T03:09:18.428Z,99987.22
2022-08-19T03:11:46.368Z,99984.50
2022-08-19T03:14:16.449Z,99989.28
2022-08-19T03:16:47.102Z,99982.63
2022-08-19T03:19:17.339Z,99985.56
2022-08-19T03:21:47.260Z,99975.94
2022-08-19T03:24:17.033Z,99984.94
2022-08-19T03:26:47.797Z,99975.31
2022-08-19T03:29:16.162Z,99981.78
2022-08-19T03:31:58.439Z,99981.78
2022-08-19T03:34:28.678Z,99983.44
2022-08-19T03:36:59.713Z,99983.88
2022-08-19T03:39:28.083Z,99993.84
2022-08-19T03:42:32.569Z,99984.88
2022-08-19T03:44:46.672Z,99992.19
2022-08-19T03:47:17.781Z,99988.22
2022-08-19T03:49:45.594Z,99992.38
2022-08-19T03:52:15.219Z,99992.19
2022-08-19T03:54:43.216Z,100001.13
2022-08-19T03:57:12.121Z,99991.13
2022-08-19T03:59:40.419Z,99992.19
2022-08-19T04:02:11.532Z,100004.91
2022-08-19T04:04:40.792Z,100002.38
2022-08-19T04:07:09.351Z,99990.50
2022-08-19T04:09:38.848Z,99990.50
2022-08-19T04:12:07.701Z,99990.31
2022-08-19T04:14:36.445Z,99992.81
2022-08-19T04:17:06.621Z,99995.53
2022-08-19T04:19:35.625Z,99997.19
2022-08-19T04:22:04.887Z,99996.34
2022-08-19T04:24:33.030Z,99994.69
2022-08-19T04:27:03.632Z,99992.81
2022-08-19T04:29:31.823Z,99988.44
2022-08-19T04:32:08.734Z,99992.19
2022-08-19T04:35:02.482Z,99984.88
2022-08-19T04:37:25.705Z,99993.66
2022-08-19T04:40:11.050Z,99991.34
2022-08-19T04:42:43.051Z,99994.91
2022-08-19T04:45:13.267Z,99999.25
2022-08-19T04:47:47.999Z,99990.31
2022-08-19T04:50:26.103Z,99982.81
2022-08-19T04:52:54.532Z,99978.41
2022-08-19T04:55:22.537Z,99980.28
2022-08-19T04:57:51.687Z,99988.41
2022-08-19T05:00:19.675Z,99993.63
2022-08-19T05:02:47.552Z,100002.78
2022-08-19T05:05:15.359Z,100014.47
2022-08-19T05:07:43.159Z,100019.03
2022-08-19T05:10:12.543Z,100011.75
2022-08-19T05:12:40.533Z,100006.97
2022-08-19T05:15:10.696Z,100009.28
2022-08-19T05:17:39.281Z,100005.31
2022-08-19T05:20:25.340Z,100002.59
2022-08-19T05:22:53.364Z,100004.28
2022-08-19T05:25:22.861Z,100011.34
2022-08-19T05:27:50.758Z,100021.38
2022-08-19T05:30:20.404Z,100022.63
2022-08-19T05:33:09.091Z,100014.13
2022-08-19T05:35:38.185Z,100017.28
2022-08-19T05:38:05.909Z,100010.81
2022-08-19T05:40:36.986Z,100028.53
2022-08-19T05:43:05.916Z,100031.22
2022-08-19T05:45:39.796Z,100030.84
2022-08-19T05:48:07.733Z,100044.63
2022-08-19T05:50:37.267Z,100038.59
2022-08-19T05:53:05.199Z,100047.34
2022-08-19T05:55:33.091Z,100047.97
2022-08-19T05:58:02.720Z,100056.53
2022-08-19T06:00:31.629Z,100069.28
2022-08-19T06:03:11.860Z,100079.69
2022-08-19T06:05:46.254Z,100079.31
2022-08-19T06:08:33.762Z,100078.47
2022-08-19T06:11:16.157Z,100092.44
2022-08-19T06:13:44.327Z,100086.41
2022-08-19T06:16:12.098Z,100093.09
2022-08-19T06:18:41.205Z,100098.31
2022-08-19T06:21:09.009Z,100102.31
2022-08-19T06:23:36.772Z,100107.94
2022-08-19T06:26:05.236Z,100114.81
2022-08-19T06:28:33.884Z,100104.38
2022-08-19T06:31:07.448Z,100110.69
2022-08-19T06:33:35.387Z,100112.59
2022-08-19T06:36:05.316Z,100103.44
2022-08-19T06:38:34.436Z,100107.19
2022-08-19T06:41:07.696Z,100110.72
2022-08-19T06:43:37.152Z,100109.06
2022-08-19T06:46:14.704Z,100104.06
2022-08-19T06:48:45.423Z,100094.88
2022-08-19T06:51:19.775Z,100096.13
2022-08-19T06:53:48.243Z,100095.50
2022-08-19T06:56:18.061Z,100103.84
2022-08-19T06:58:47.527Z,100106.78
2022-08-19T07:01:15.445Z,100113.25
2022-08-19T07:03:43.226Z,100118.03
2022-08-19T07:06:32.597Z,100109.25
2022-08-19T07:09:03.027Z,100110.50
2022-08-19T07:11:31.950Z,100103.41
2022-08-19T07:14:02.109Z,100102.16
2022-08-19T07:16:31.401Z,100105.50
2022-08-19T07:19:00.289Z,100098.59
2022-08-19T07:21:40.425Z,100100.47
2022-08-19T07:24:09.794Z,100107.13
2022-08-19T07:26:42.209Z,100113.59
2022-08-19T07:29:10.736Z,100111.06
2022-08-19T07:31:38.696Z,100114.81
2022-08-19T07:34:08.650Z,100117.91
2022-08-19T07:36:38.471Z,100115.56
2022-08-19T07:39:10.459Z,100116.59
2022-08-19T07:41:38.334Z,100119.88
2022-08-19T07:44:08.394Z,100118.38
2022-08-19T07:46:38.299Z,100114.72
2022-08-19T07:49:06.848Z,100122.81
2022-08-19T07:51:36.968Z,100120.00
2022-08-19T07:54:05.361Z,100128.56
2022-08-19T07:56:34.549Z,100121.94
2022-08-19T07:59:02.298Z,100119.72
2022-08-19T08:01:30.449Z,100118.97
2022-08-19T08:04:17.356Z,100119.47
2022-08-19T08:07:03.427Z,100120.16
2022-08-19T08:09:34.799Z,100119.66
2022-08-19T08:12:30.839Z,100115.66
2022-08-19T08:14:59.405Z,100113.09
2022-08-19T08:17:48.521Z,100126.09
2022-08-19T08:20:17.096Z,100125.56
2022-08-19T08:23:03.644Z,100113.66
2022-08-19T08:25:32.521Z,100111.91
2022-08-19T08:28:04.802Z,100104.53
2022-08-19T08:30:33.846Z,100113.72
2022-08-19T08:33:02.519Z,100112.19
2022-08-19T08:35:30.795Z,100114.59
2022-08-19T08:37:58.884Z,100113.66
2022-08-19T08:40:31.866Z,100111.44
2022-08-19T08:45:46.229Z,100111.72
2022-08-19T08:48:27.716Z,100114.72
2022-08-19T08:50:58.858Z,100113.25
2022-08-19T08:53:31.071Z,100113.63
2022-08-19T08:56:03.970Z,100113.75
2022-08-19T08:58:44.702Z,100123.59
2022-08-19T09:01:14.907Z,100113.56
2022-08-19T09:03:46.351Z,100119.38
2022-08-19T09:06:19.603Z,100112.31
2022-08-19T09:08:58.555Z,100120.19
2022-08-19T09:11:44.491Z,100113.63
2022-08-19T09:14:47.215Z,100117.72
2022-08-19T09:17:11.855Z,100119.56
2022-08-19T09:19:54.099Z,100107.72
2022-08-19T09:22:25.949Z,100099.53
2022-08-19T09:24:56.378Z,100102.16
2022-08-19T09:27:42.423Z,100115.09
2022-08-19T09:30:16.067Z,100114.09
2022-08-19T09:32:46.251Z,100114.66
2022-08-19T09:35:15.472Z,100117.00
2022-08-19T09:37:52.286Z,100102.28
2022-08-19T09:40:26.621Z,100102.28
2022-08-19T09:42:54.464Z,100106.00
2022-08-19T09:45:23.859Z,100104.31
2022-08-19T09:47:55.601Z,100097.00
2022-08-19T09:50:25.084Z,100101.25
2022-08-19T09:52:56.988Z,100098.41
2022-08-19T09:55:31.466Z,100091.06
2022-08-19T09:58:02.333Z,100100.56
2022-08-19T10:00:31.850Z,100102.09
2022-08-19T10:03:01.237Z,100100.25
2022-08-19T10:05:48.591Z,100105.22
2022-08-19T10:08:17.520Z,100099.34
2022-08-19T10:10:46.289Z,100100.94
2022-08-19T10:13:15.968Z,100099.53
2022-08-19T10:15:47.179Z,100094.69
2022-08-19T10:18:19.279Z,100109.78
2022-08-19T10:20:51.826Z,100115.53
2022-08-19T10:23:21.923Z,100116.59
2022-08-19T10:25:49.908Z,100109.00
2022-08-19T10:28:19.387Z,100115.16
2022-08-19T10:30:48.553Z,100105.72
2022-08-19T10:33:39.205Z,100114.25
2022-08-19T10:36:08.737Z,100113.97
2022-08-19T10:38:37.145Z,100117.56
2022-08-19T10:41:17.297Z,100108.31
2022-08-19T10:43:46.101Z,100105.59
2022-08-19T10:46:16.766Z,100098.00
2022-08-19T10:48:46.482Z,100098.41
2022-08-19T10:51:32.402Z,100102.03
2022-08-19T10:54:01.117Z,100096.91
2022-08-19T10:56:46.539Z,100094.13
2022-08-19T10:59:15.359Z,100088.41
2022-08-19T11:01:44.739Z,100095.38
2022-08-19T11:04:19.071Z,100084.50
2022-08-19T11:06:48.375Z,100080.72
2022-08-19T11:09:17.992Z,100087.94
2022-08-19T11:11:46.457Z,100089.59
2022-08-19T11:14:16.687Z,100083.66
2022-08-19T11:16:45.374Z,100082.81
2022-08-19T11:19:15.260Z,100078.75
2022-08-19T11:21:45.893Z,100073.75
2022-08-19T11:24:21.203Z,100087.19
2022-08-19T11:26:50.224Z,100071.22
2022-08-19T11:29:20.808Z,100068.78
2022-08-19T11:31:50.971Z,100054.22
2022-08-19T11:34:22.012Z,100061.13
2022-08-19T11:36:51.049Z,100054.78
2022-08-19T11:39:21.027Z,100039.63
2022-08-19T11:41:49.413Z,100040.50
2022-08-19T11:44:18.162Z,100036.91
2022-08-19T11:46:47.874Z,100036.41
2022-08-19T11:49:16.992Z,100027.31
2022-08-19T11:51:46.149Z,100022.38
2022-08-19T11:54:15.598Z,100028.41
2022-08-19T11:59:27.736Z,100026.75
2022-08-19T12:01:56.985Z,100029.53
2022-08-19T12:04:25.221Z,100032.28
2022-08-19T12:06:54.014Z,100026.22
2022-08-19T12:09:23.134Z,100032.31
2022-08-19T12:11:51.863Z,100034.19
2022-08-19T12:14:19.812Z,100038.34
2022-08-19T12:16:52.213Z,100033.13
2022-08-19T12:19:22.331Z,100037.78
2022-08-19T12:21:51.486Z,100038.59
2022-08-19T12:24:23.999Z,100037.78
2022-08-19T12:26:53.200Z,100029.53
2022-08-19T12:29:24.046Z,100029.25
2022-08-19T12:31:53.898Z,100028.97
2022-08-19T12:34:22.057Z,100027.06
2022-08-19T12:36:50.582Z,100024.25
2022-08-19T12:39:18.930Z,100028.97
2022-08-19T12:41:54.781Z,100021.78
2022-08-19T12:44:29.375Z,100019.06
2022-08-19T12:47:01.472Z,100017.09
2022-08-19T12:49:52.269Z,100015.75
2022-08-19T12:52:23.144Z,100009.63
2022-08-19T12:54:54.415Z,100012.34
2022-08-19T12:57:23.789Z,100012.38
2022-08-19T13:00:00.743Z,100016.78
2022-08-19T13:02:30.000Z,100020.66
2022-08-19T13:04:58.678Z,100014.63
2022-08-19T13:07:26.617Z,100025.13
2022-08-19T13:09:54.946Z,100035.06
2022-08-19T13:12:25.334Z,100031.47
2022-08-19T13:14:53.339Z,100029.25
2022-08-19T13:17:21.453Z,100024.81
2022-08-19T13:19:51.724Z,100030.84
2022-08-19T13:22:19.737Z,100038.09
2022-08-19T13:24:47.704Z,100023.47
2022-08-19T13:27:15.726Z,100024.00
2022-08-19T13:30:02.314Z,100026.75
2022-08-19T13:32:48.961Z,100022.06
2022-08-19T13:35:19.319Z,100011.56
2022-08-19T13:37:47.243Z,100008.56
2022-08-19T13:40:19.385Z,100015.75
2022-08-19T13:42:49.153Z,100018.22
2022-08-19T13:45:18.988Z,100024.03
2022-08-19T13:47:48.515Z,100018.25
2022-08-19T13:50:20.563Z,100019.28
2022-08-19T13:52:49.626Z,100017.63
2022-08-19T13:55:24.841Z,100017.56
2022-08-19T13:57:54.002Z,100018.09
2022-08-19T14:00:22.953Z,100015.28
2022-08-19T14:02:53.535Z,100005.34
2022-08-19T14:05:23.385Z,100016.28
2022-08-19T14:07:51.426Z,100008.00
2022-08-19T14:10:19.899Z,100016.47
2022-08-19T14:12:48.463Z,100017.75
2022-08-19T14:15:17.173Z,100015.50
2022-08-19T14:17:49.664Z,100004.22
2022-08-19T14:20:18.670Z,100005.16
2022-08-19T14:22:49.933Z,99997.53
2022-08-19T14:25:20.931Z,99998.59
2022-08-19T14:27:49.871Z,99992.25
2022-08-19T14:30:20.362Z,99999.91
2022-08-19T14:32:48.287Z,99986.06
2022-08-19T14:35:17.592Z,99976.94
2022-08-19T14:37:47.592Z,99970.63
2022-08-19T14:40:18.849Z,99962.19
2022-08-19T14:42:46.737Z,99963.59
2022-08-19T14:45:14.719Z,99957.66
2022-08-19T14:47:42.542Z,99961.03
2022-08-19T14:50:17.785Z,99962.16
2022-08-19T14:52:48.828Z,99965.22
2022-08-19T14:55:18.467Z,99969.38
2022-08-19T14:57:47.406Z,99963.88
2022-08-19T15:00:16.818Z,99964.47
2022-08-19T15:02:45.263Z,99964.50
2022-08-19T15:05:13.202Z,99965.59
2022-08-19T15:07:41.861Z,99965.88
2022-08-19T15:10:13.584Z,99962.84
2022-08-19T15:12:43.253Z,99966.38
2022-08-19T15:15:14.506Z,99963.34
2022-08-19T15:17:43.757Z,99973.75
2022-08-19T15:20:15.267Z,99968.22
2022-08-19T15:22:43.349Z,99969.00
2022-08-19T15:25:16.410Z,99970.38
2022-08-19T15:27:44.428Z,99973.84
2022-08-19T15:30:13.970Z,99969.69
2022-08-19T15:32:44.269Z,99966.09
2022-08-19T15:35:15.610Z,99973.75
2022-08-19T15:37:43.828Z,99961.63
2022-08-19T15:40:14.082Z,99968.75
2022-08-19T15:42:43.571Z,99971.41
2022-08-19T15:45:13.500Z,99970.56
2022-08-19T15:47:41.879Z,99974.09
2022-08-19T15:50:11.474Z,99972.13
2022-08-19T15:52:49.491Z,99973.75
2022-08-19T15:55:32.181Z,99971.78
2022-08-19T15:58:24.135Z,99975.28
2022-08-19T16:01:13.717Z,99977.72
2022-08-19T16:04:00.158Z,99968.59
2022-08-19T16:06:28.152Z,99975.41
2022-08-19T16:08:57.511Z,99974.00
2022-08-19T16:11:30.546Z,99974.53
2022-08-19T16:13:59.780Z,99969.81
2022-08-19T16:16:33.803Z,99972.81
2022-08-19T16:19:05.077Z,99966.75
2022-08-19T16:21:34.694Z,99971.94
2022-08-19T16:24:06.692Z,99972.72
2022-08-19T16:26:36.432Z,99971.34
2022-08-19T16:29:08.993Z,99970.78
2022-08-19T16:31:41.389Z,99970.69
2022-08-19T16:34:09.396Z,99966.56
2022-08-19T16:36:42.129Z,99968.72
2022-08-19T16:39:11.222Z,99972.53
2022-08-19T16:41:41.243Z,99978.81
2022-08-19T16:44:11.448Z,99983.16
2022-08-19T16:46:41.665Z,99979.03
2022-08-19T16:49:11.579Z,99983.88
2022-08-19T16:51:40.098Z,99993.41
2022-08-19T16:54:08.367Z,99994.75
2022-08-19T16:56:36.755Z,99986.72
2022-08-19T16:59:06.610Z,99994.63
2022-08-19T17:01:34.583Z,99993.50
2022-08-19T17:04:02.437Z,99996.44
2022-08-19T17:06:32.129Z,99998.81
2022-08-19T17:09:01.932Z,99995.50
2022-08-19T17:11:31.558Z,99990.75
2022-08-19T17:13:59.574Z,99986.88
2022-08-19T17:16:32.024Z,99994.81
2022-08-19T17:19:01.740Z,100000.53
2022-08-19T17:21:33.146Z,99997.47
2022-08-19T17:24:02.266Z,99991.41
2022-08-19T17:26:31.262Z,100002.28
2022-08-19T17:29:00.365Z,100000.06
2022-08-19T17:31:32.009Z,100004.41
2022-08-19T17:34:00.764Z,100006.31
2022-08-19T17:36:31.540Z,100001.81
2022-08-19T17:39:01.703Z,100007.00
2022-08-19T17:41:32.257Z,100007.47
2022-08-19T17:44:00.093Z,100005.28
2022-08-19T17:49:10.941Z,100016.38
2022-08-19T17:51:42.412Z,100010.06
2022-08-19T17:54:12.192Z,100019.34
2022-08-19T17:56:40.457Z,100011.88
2022-08-19T17:59:13.929Z,100007.72
2022-08-19T18:01:52.117Z,100014.78
2022-08-19T18:04:24.937Z,100018.88
2022-08-19T18:06:55.050Z,100018.28
2022-08-19T18:09:30.043Z,100019.84
2022-08-19T18:12:11.712Z,100022.50
2022-08-19T18:14:40.501Z,100030.38
2022-08-19T18:17:10.740Z,100029.22
2022-08-19T18:19:43.739Z,100029.72
2022-08-19T18:24:38.983Z,100043.22
2022-08-19T18:27:07.222Z,100046.13
2022-08-19T18:29:36.957Z,100039.13
2022-08-19T18:32:05.613Z,100049.13
2022-08-19T18:34:33.646Z,100051.19
2022-08-19T18:39:45.484Z,100053.41
2022-08-19T18:42:32.776Z,100064.47
2022-08-19T18:45:17.953Z,100064.38
2022-08-19T18:48:03.244Z,100074.59
2022-08-19T18:50:31.154Z,100075.00
2022-08-19T18:52:59.566Z,100078.91
2022-08-19T18:55:29.389Z,100083.44
2022-08-19T18:57:57.426Z,100091.97
2022-08-19T19:00:25.309Z,100093.66
2022-08-19T19:05:20.340Z,100102.59
2022-08-19T19:07:48.722Z,100106.50
2022-08-19T19:10:16.514Z,100101.16
2022-08-19T19:12:45.795Z,100111.59
2022-08-19T19:15:14.157Z,100107.91
2022-08-19T19:20:25.257Z,100124.34
2022-08-19T19:23:04.829Z,100124.91
2022-08-19T19:25:49.593Z,100121.09
2022-08-19T19:28:27.752Z,100132.56
2022-08-19T19:30:58.484Z,100135.63
2022-08-19T19:33:26.847Z,100143.03
2022-08-19T19:35:54.806Z,100149.63
2022-08-19T19:40:47.896Z,100154.19
2022-08-19T19:43:18.177Z,100155.91
2022-08-19T19:45:48.306Z,100162.06
2022-08-19T19:50:41.445Z,100169.13
2022-08-19T19:53:09.272Z,100167.91
2022-08-19T19:55:37.149Z,100177.59
2022-08-19T19:58:06.973Z,100166.63
2022-08-19T20:00:35.214Z,100171.69
2022-08-19T20:03:04.685Z,100172.78
2022-08-19T20:05:32.643Z,100185.38
2022-08-19T20:08:18.523Z,100182.53
2022-08-19T20:10:47.333Z,100189.91
2022-08-19T20:15:52.121Z,100192.72
2022-08-19T20:18:21.503Z,100196.34
2022-08-19T20:23:14.955Z,100203.78
2022-08-19T20:25:43.512Z,100207.63
2022-08-19T20:28:12.446Z,100214.16
2022-08-19T20:30:47.973Z,100222.16
2022-08-19T20:33:16.051Z,100224.72
2022-08-19T20:35:46.228Z,100219.34
2022-08-19T20:38:14.158Z,100222.06
2022-08-19T20:40:42.195Z,100231.28
2022-08-19T20:43:11.898Z,100229.19
2022-08-19T20:45:40.303Z,100224.41
2022-08-19T20:50:35.302Z,100225.50
2022-08-19T20:55:35.331Z,100220.50
2022-08-19T20:58:03.880Z,100224.50
2022-08-19T21:00:31.950Z,100223.88
2022-08-19T21:02:59.748Z,100222.44
2022-08-19T21:05:30.604Z,100225.56
2022-08-19T21:07:59.106Z,100223.25
2022-08-19T21:10:28.326Z,100226.59
2022-08-19T21:12:56.486Z,100223.69
2022-08-19T21:15:25.011Z,100224.97
2022-08-19T21:17:52.894Z,100224.53
2022-08-19T21:20:20.865Z,100221.41
2022-08-19T21:22:48.729Z,100221.63
2022-08-19T21:25:17.936Z,100220.59
2022-08-19T21:27:47.050Z,100224.16
2022-08-19T21:30:15.221Z,100230.22
2022-08-19T21:32:43.062Z,100233.59
2022-08-19T21:35:11.156Z,100241.53
2022-08-19T21:37:38.948Z,100240.28
2022-08-19T21:40:08.329Z,100247.16
2022-08-19T21:42:36.230Z,100247.81
2022-08-19T21:45:06.294Z,100246.56
2022-08-19T21:47:34.226Z,100251.38
2022-08-19T21:50:02.066Z,100256.16
2022-08-19T21:52:29.880Z,100260.13
2022-08-19T21:54:58.069Z,100262.59
2022-08-19T21:57:26.493Z,100259.03
2022-08-19T21:59:54.437Z,100256.75
2022-08-19T22:02:23.819Z,100256.13
2022-08-19T22:04:52.792Z,100261.75
2022-08-19T22:07:22.036Z,100261.31
2022-08-19T22:09:51.653Z,100259.88
2022-08-19T22:12:24.418Z,100256.53
2022-08-19T22:14:53.390Z,100260.25
2022-08-19T22:17:23.785Z,100259.88
2022-08-19T22:19:52.638Z,100259.44
2022-08-19T22:24:45.763Z,100254.81
2022-08-19T22:27:13.555Z,100258.78
2022-08-19T22:29:41.448Z,100264.44
2022-08-19T22:32:26.292Z,100263.56
2022-08-19T22:34:59.127Z,100266.91
2022-08-19T22:37:28.871Z,100270.50
2022-08-19T22:39:57.000Z,100264.19
2022-08-19T22:42:31.839Z,100274.22
2022-08-19T22:45:01.048Z,100275.06
2022-08-19T22:47:32.035Z,100275.06
2022-08-19T22:50:04.440Z,100276.13
2022-08-19T22:52:31.720Z,100277.78
2022-08-19T22:55:02.711Z,100269.22
2022-08-19T23:00:14.767Z,100271.50
2022-08-19T23:02:52.130Z,100267.09
2022-08-19T23:07:53.577Z,100278.38
2022-08-19T23:10:27.532Z,100267.09
2022-08-19T23:15:25.801Z,100261.22
2022-08-19T23:17:55.373Z,100257.06
2022-08-19T23:20:27.078Z,100254.53
2022-08-19T23:22:57.455Z,100253.72
2022-08-19T23:25:28.010Z,100251.19
2022-08-19T23:28:13.825Z,100259.94
2022-08-19T23:30:44.817Z,100249.69
2022-08-19T23:33:24.239Z,100264.69
2022-08-19T23:35:53.890Z,100255.47
2022-08-19T23:38:39.194Z,100260.06
2022-08-19T23:41:09.120Z,100251.47
2022-08-19T23:43:39.522Z,100246.25
2022-08-19T23:46:10.719Z,100251.91
2022-08-19T23:48:39.838Z,100247.69
2022-08-19T23:51:10.920Z,100246.44
2022-08-19T23:53:42.307Z,100257.06
2022-08-19T23:56:12.485Z,100250.38
2022-08-19T23:58:40.720Z,100253.03
